Chateaugay, New York
Current Conditions -  °F | °C
As of 12:53 PM on Sunday 21 Dec 2014 (Local Time) from KPBG Reporting Station
Overcast Overcast  
Wind Chill: 23°   Ceiling: 2900
Heat Index: 23°   Visibility: 7mi
Dew Point: 19°   Wind: 3mph
Humidity: 85%   Direction: 50°NE
Pressure: 30.35"   Gusts: NA
Location:  44.93°N, 74.08°W
Report Text: KPBG 211753Z AUTO 05003KT 7SM OVC029 M05/M07 A3035 RMK AO2 SLP281 T10501072 11050 21078 56011
Loading
Personal Weather Stations






























Interactive Weather Map New forecast layout! Learn more

10-Day Weather Forecast

Advertisements
Track Severe Weather on mobile